createdAt,value
2022-08-27T00:00:07.600Z,16.80
2022-08-27T00:03:11.781Z,14.80
2022-08-27T00:06:15.198Z,18.23
2022-08-27T00:09:26.883Z,13.05
2022-08-27T00:12:30.278Z,13.95
2022-08-27T00:15:33.349Z,11.98
2022-08-27T00:18:38.232Z,15.68
2022-08-27T00:21:40.756Z,14.73
2022-08-27T00:24:48.604Z,11.77
2022-08-27T00:27:51.755Z,15.77
2022-08-27T00:30:55.491Z,15.77
2022-08-27T00:33:59.285Z,15.05
2022-08-27T00:37:02.750Z,13.45
2022-08-27T00:40:08.700Z,13.05
2022-08-27T00:43:11.474Z,10.25
2022-08-27T00:46:20.554Z,12.60
2022-08-27T00:49:28.940Z,10.98
2022-08-27T00:52:34.221Z,14.02
2022-08-27T00:55:41.801Z,13.45
2022-08-27T00:58:46.763Z,12.27
2022-08-27T01:02:07.229Z,16.15
2022-08-27T01:05:14.104Z,10.77
2022-08-27T01:08:21.887Z,10.70
2022-08-27T01:11:25.411Z,9.98
2022-08-27T01:14:28.505Z,11.35
2022-08-27T01:17:32.131Z,11.38
2022-08-27T01:20:47.335Z,11.45
2022-08-27T01:23:57.530Z,12.73
2022-08-27T01:27:03.741Z,13.15
2022-08-27T01:30:08.780Z,14.85
2022-08-27T01:33:12.036Z,12.68
2022-08-27T01:36:14.614Z,11.35
2022-08-27T01:39:26.253Z,12.38
2022-08-27T01:42:33.249Z,11.73
2022-08-27T01:45:38.364Z,13.45
2022-08-27T01:48:41.194Z,18.60
2022-08-27T01:51:45.134Z,15.13
2022-08-27T01:54:48.709Z,15.65
2022-08-27T01:57:52.757Z,16.30
2022-08-27T02:01:00.346Z,18.52
2022-08-27T02:04:02.955Z,18.42
2022-08-27T02:07:06.296Z,14.73
2022-08-27T02:10:12.000Z,16.55
2022-08-27T02:13:16.025Z,14.85
2022-08-27T02:16:18.601Z,20.63
2022-08-27T02:19:22.141Z,18.00
2022-08-27T02:22:25.012Z,18.15
2022-08-27T02:25:28.969Z,19.63
2022-08-27T02:28:32.813Z,17.33
2022-08-27T02:31:35.366Z,19.08
2022-08-27T02:34:38.159Z,20.23
2022-08-27T02:37:41.795Z,26.65
2022-08-27T02:40:44.350Z,23.98
2022-08-27T02:43:48.272Z,21.20
2022-08-27T02:46:53.691Z,21.65
2022-08-27T02:49:56.403Z,27.92
2022-08-27T02:52:58.863Z,27.30
2022-08-27T02:56:01.344Z,26.08
2022-08-27T02:59:05.191Z,24.95
2022-08-27T03:02:07.784Z,31.67
2022-08-27T03:05:13.134Z,27.98
2022-08-27T03:08:15.628Z,30.58
2022-08-27T03:11:18.140Z,30.48
2022-08-27T03:14:22.130Z,27.48
2022-08-27T03:17:41.960Z,27.77
2022-08-27T03:20:46.148Z,27.80
2022-08-27T03:23:49.658Z,26.80
2022-08-27T03:26:52.551Z,26.67
2022-08-27T03:30:00.732Z,26.83
2022-08-27T03:33:06.111Z,24.73
2022-08-27T03:36:09.567Z,25.08
2022-08-27T03:39:12.654Z,25.58
2022-08-27T03:42:15.140Z,26.10
2022-08-27T03:45:19.202Z,24.95
2022-08-27T03:48:21.800Z,22.60
2022-08-27T03:51:24.334Z,27.15
2022-08-27T03:54:26.836Z,21.83
2022-08-27T03:57:29.693Z,23.60
2022-08-27T04:00:33.504Z,26.80
2022-08-27T04:03:36.421Z,25.85
2022-08-27T04:06:38.992Z,27.60
2022-08-27T04:09:41.615Z,29.42
2022-08-27T04:12:46.093Z,27.20
2022-08-27T04:15:52.479Z,26.90
2022-08-27T04:18:55.808Z,30.85
2022-08-27T04:22:02.670Z,29.38
2022-08-27T04:25:05.888Z,24.98
2022-08-27T04:28:14.983Z,26.90
2022-08-27T04:31:21.900Z,27.30
2022-08-27T04:34:24.937Z,28.55
2022-08-27T04:37:30.790Z,27.63
2022-08-27T04:40:47.784Z,29.05
2022-08-27T04:43:52.945Z,28.38
2022-08-27T04:46:59.129Z,30.40
2022-08-27T04:50:01.709Z,28.55
2022-08-27T04:53:08.606Z,27.33
2022-08-27T04:56:16.015Z,26.80
2022-08-27T04:59:18.608Z,27.73
2022-08-27T05:02:22.467Z,30.60
2022-08-27T05:05:28.826Z,28.52
2022-08-27T05:08:32.366Z,35.28
2022-08-27T05:11:35.347Z,32.05
2022-08-27T05:14:38.408Z,27.17
2022-08-27T05:17:44.000Z,35.20
2022-08-27T05:20:48.892Z,29.60
2022-08-27T05:23:54.250Z,30.15
2022-08-27T05:26:59.380Z,30.73
2022-08-27T05:30:02.042Z,34.25
2022-08-27T05:33:07.472Z,33.22
2022-08-27T05:36:16.530Z,31.63
2022-08-27T05:39:20.125Z,32.90
2022-08-27T05:42:22.579Z,35.63
2022-08-27T05:45:25.118Z,31.38
2022-08-27T05:48:29.004Z,31.48
2022-08-27T05:51:33.865Z,34.55
2022-08-27T05:54:36.364Z,27.65
2022-08-27T05:57:39.243Z,25.83
2022-08-27T06:01:03.554Z,28.20
2022-08-27T06:04:09.487Z,23.35
2022-08-27T06:07:12.037Z,24.95
2022-08-27T06:10:14.601Z,23.55
2022-08-27T06:13:17.673Z,28.20
2022-08-27T06:16:20.978Z,28.95
2022-08-27T06:19:25.164Z,24.38
2022-08-27T06:22:27.603Z,29.13
2022-08-27T06:25:32.259Z,25.67
2022-08-27T06:28:35.475Z,26.52
2022-08-27T06:31:40.452Z,27.65
2022-08-27T06:34:44.482Z,25.83
2022-08-27T06:37:46.947Z,19.92
2022-08-27T06:40:49.491Z,23.13
2022-08-27T06:43:52.898Z,22.98
2022-08-27T06:46:55.681Z,23.38
2022-08-27T06:49:59.496Z,19.45
2022-08-27T06:53:02.054Z,25.85
2022-08-27T06:56:05.495Z,21.77
2022-08-27T06:59:11.854Z,28.33
2022-08-27T07:02:15.511Z,20.08
2022-08-27T07:05:19.608Z,24.33
2022-08-27T07:08:22.101Z,25.90
2022-08-27T07:11:25.111Z,23.98
2022-08-27T07:14:27.788Z,23.98
2022-08-27T07:17:30.239Z,20.67
2022-08-27T07:20:34.703Z,27.58
2022-08-27T07:23:39.083Z,21.92
2022-08-27T07:26:44.531Z,21.52
2022-08-27T07:29:47.045Z,21.88
2022-08-27T07:32:50.005Z,21.63
2022-08-27T07:35:53.788Z,23.20
2022-08-27T07:39:01.078Z,21.27
2022-08-27T07:42:33.474Z,18.70
2022-08-27T07:48:38.657Z,16.92
2022-08-27T07:51:42.428Z,17.42
2022-08-27T07:54:45.027Z,14.27
2022-08-27T07:57:48.646Z,10.60
2022-08-27T08:00:51.148Z,12.23
2022-08-27T08:03:53.629Z,12.85
2022-08-27T08:06:57.532Z,12.82
2022-08-27T08:10:00.072Z,10.88
2022-08-27T08:13:02.556Z,13.80
2022-08-27T08:16:06.451Z,15.23
2022-08-27T08:19:09.444Z,13.77
2022-08-27T08:22:13.572Z,13.88
2022-08-27T08:25:16.777Z,14.85
2022-08-27T08:28:19.279Z,12.93
2022-08-27T08:31:24.033Z,14.82
2022-08-27T08:34:28.844Z,17.20
2022-08-27T08:37:32.681Z,15.88
2022-08-27T08:40:39.575Z,14.50
2022-08-27T08:43:49.464Z,12.25
2022-08-27T08:46:59.292Z,14.73
2022-08-27T08:50:06.425Z,20.23
2022-08-27T08:53:19.982Z,15.40
2022-08-27T08:56:29.491Z,15.80
2022-08-27T08:59:37.069Z,15.63
2022-08-27T09:02:40.120Z,16.05
2022-08-27T09:05:48.591Z,15.60
2022-08-27T09:08:52.837Z,13.05
2022-08-27T09:12:01.071Z,16.35
2022-08-27T09:15:09.327Z,15.48
2022-08-27T09:18:17.028Z,15.45
2022-08-27T09:21:29.737Z,20.15
2022-08-27T09:24:43.728Z,18.95
2022-08-27T09:27:46.199Z,20.20
2022-08-27T09:30:49.517Z,23.00
2022-08-27T09:33:56.488Z,20.83
2022-08-27T09:37:05.389Z,22.58
2022-08-27T09:40:22.970Z,17.83
2022-08-27T09:43:29.197Z,19.27
2022-08-27T09:46:31.899Z,17.90
2022-08-27T09:49:36.800Z,17.70
2022-08-27T09:52:55.048Z,18.42
2022-08-27T09:56:01.755Z,22.15
2022-08-27T09:59:07.121Z,18.67
2022-08-27T10:02:16.512Z,19.00
2022-08-27T10:05:27.859Z,17.08
2022-08-27T10:08:39.344Z,15.05
2022-08-27T10:14:54.229Z,14.23
2022-08-27T10:18:04.631Z,14.82
2022-08-27T10:21:15.985Z,14.35
2022-08-27T10:24:28.990Z,18.58
2022-08-27T10:27:40.311Z,21.20
2022-08-27T10:31:08.273Z,16.60
2022-08-27T10:34:26.829Z,19.30
2022-08-27T10:37:40.256Z,16.05
2022-08-27T10:40:48.626Z,19.33
2022-08-27T10:44:11.891Z,19.27
2022-08-27T10:47:36.967Z,21.77
2022-08-27T10:50:46.195Z,17.67
2022-08-27T10:53:53.872Z,23.60
2022-08-27T10:57:24.582Z,18.08
2022-08-27T11:00:26.084Z,20.55
2022-08-27T11:03:35.212Z,16.10
2022-08-27T11:06:41.996Z,17.05
2022-08-27T11:09:52.642Z,15.52
2022-08-27T11:13:09.263Z,18.55
2022-08-27T11:16:19.101Z,21.08
2022-08-27T11:19:27.808Z,17.08
2022-08-27T11:22:35.144Z,17.33
2022-08-27T11:25:46.785Z,16.50
2022-08-27T11:28:53.317Z,16.52
2022-08-27T11:32:04.580Z,18.08
2022-08-27T11:35:15.395Z,14.55
2022-08-27T11:38:43.971Z,22.10
2022-08-27T11:42:15.178Z,23.60
2022-08-27T11:45:20.865Z,14.80
2022-08-27T11:48:27.197Z,17.75
2022-08-27T11:51:34.064Z,14.48
2022-08-27T11:54:47.233Z,12.43
2022-08-27T11:58:02.695Z,12.45
2022-08-27T12:01:16.965Z,12.65
2022-08-27T12:04:36.538Z,16.80
2022-08-27T12:07:44.937Z,10.50
2022-08-27T12:10:59.451Z,11.90
2022-08-27T12:14:12.463Z,10.13
2022-08-27T12:17:26.552Z,11.45
2022-08-27T12:20:43.943Z,11.57
2022-08-27T12:23:57.862Z,11.27
2022-08-27T12:27:03.741Z,12.52
2022-08-27T12:30:21.091Z,14.00
2022-08-27T12:33:31.077Z,14.93
2022-08-27T12:36:35.284Z,13.63
2022-08-27T12:39:39.343Z,15.18
2022-08-27T12:42:41.913Z,18.02
2022-08-27T12:45:48.117Z,13.45
2022-08-27T12:48:56.943Z,15.75
2022-08-27T12:52:12.526Z,11.10
2022-08-27T12:55:29.358Z,15.35
2022-08-27T12:58:47.245Z,13.15
2022-08-27T13:02:01.826Z,14.23
2022-08-27T13:05:10.283Z,12.20
2022-08-27T13:08:24.805Z,10.82
2022-08-27T13:11:30.660Z,12.40
2022-08-27T13:14:38.039Z,15.02
2022-08-27T13:17:42.971Z,15.63
2022-08-27T13:20:46.976Z,11.45
2022-08-27T13:24:00.320Z,12.27
2022-08-27T13:27:05.539Z,16.17
2022-08-27T13:30:11.960Z,12.55
2022-08-27T13:33:37.536Z,9.75
2022-08-27T13:36:54.468Z,11.55
2022-08-27T13:39:58.357Z,12.35
2022-08-27T13:43:08.682Z,12.30
2022-08-27T13:46:14.592Z,11.82
2022-08-27T13:49:22.914Z,9.82
2022-08-27T13:52:30.020Z,12.77
2022-08-27T13:55:33.668Z,9.45
2022-08-27T13:58:37.001Z,8.15
2022-08-27T14:01:44.213Z,10.82
2022-08-27T14:04:49.110Z,11.43
2022-08-27T14:07:54.148Z,12.20
2022-08-27T14:11:02.828Z,12.18
2022-08-27T14:14:05.488Z,12.63
2022-08-27T14:17:21.656Z,11.43
2022-08-27T14:20:24.254Z,14.88
2022-08-27T14:23:27.401Z,12.13
2022-08-27T14:26:31.284Z,12.10
2022-08-27T14:29:33.768Z,11.80
2022-08-27T14:32:37.571Z,17.52
2022-08-27T14:35:41.359Z,11.68
2022-08-27T14:38:47.880Z,11.98
2022-08-27T14:41:51.675Z,14.15
2022-08-27T14:44:54.147Z,12.30
2022-08-27T14:48:01.967Z,14.35
2022-08-27T14:51:12.532Z,10.30
2022-08-27T14:54:15.011Z,17.52
2022-08-27T14:57:19.451Z,10.45
2022-08-27T15:00:22.085Z,11.15
2022-08-27T15:03:25.993Z,9.07
2022-08-27T15:06:28.660Z,9.90
2022-08-27T15:09:31.231Z,11.63
2022-08-27T15:12:35.181Z,12.05
2022-08-27T15:15:37.945Z,11.93
2022-08-27T15:18:40.424Z,14.23
2022-08-27T15:21:45.820Z,17.40
2022-08-27T15:24:51.792Z,12.20
2022-08-27T15:27:55.562Z,12.63
2022-08-27T15:30:58.065Z,10.02
2022-08-27T15:34:00.735Z,11.35
2022-08-27T15:37:03.854Z,11.73
2022-08-27T15:40:07.577Z,10.82
2022-08-27T15:43:13.006Z,13.68
2022-08-27T15:46:15.556Z,13.95
2022-08-27T15:49:18.217Z,17.67
2022-08-27T15:52:22.926Z,15.02
2022-08-27T15:55:29.251Z,14.65
2022-08-27T15:58:33.477Z,11.70
2022-08-27T16:01:37.773Z,17.20
2022-08-27T16:04:40.302Z,17.73
2022-08-27T16:07:43.593Z,14.60
2022-08-27T16:10:46.069Z,11.80
2022-08-27T16:13:50.097Z,16.25
2022-08-27T16:16:52.701Z,13.18
2022-08-27T16:19:55.687Z,12.07
2022-08-27T16:22:58.666Z,9.90
2022-08-27T16:26:02.792Z,14.95
2022-08-27T16:29:07.180Z,14.60
2022-08-27T16:32:15.435Z,12.15
2022-08-27T16:35:18.039Z,14.50
2022-08-27T16:38:20.725Z,10.30
2022-08-27T16:41:23.563Z,10.55
2022-08-27T16:44:27.469Z,10.77
2022-08-27T16:47:29.924Z,9.25
2022-08-27T16:50:34.578Z,13.10
2022-08-27T16:53:40.616Z,11.68
2022-08-27T16:56:43.465Z,9.38
2022-08-27T16:59:51.133Z,16.38
2022-08-27T17:02:53.791Z,12.05
2022-08-27T17:05:56.365Z,10.68
2022-08-27T17:08:59.230Z,11.13
2022-08-27T17:12:05.281Z,8.13
2022-08-27T17:15:10.351Z,9.30
2022-08-27T17:18:12.922Z,9.07
2022-08-27T17:21:17.891Z,8.18
2022-08-27T17:24:20.369Z,6.95
2022-08-27T17:27:22.844Z,6.50
2022-08-27T17:30:26.686Z,8.77
2022-08-27T17:33:34.947Z,8.65
2022-08-27T17:36:37.507Z,7.75
2022-08-27T17:39:40.225Z,7.80
2022-08-27T17:42:42.747Z,6.05
2022-08-27T17:45:47.337Z,3.47
2022-08-27T17:48:51.492Z,4.65
2022-08-27T17:52:01.264Z,7.97
2022-08-27T17:55:08.239Z,11.65
2022-08-27T17:58:11.885Z,7.22
2022-08-27T18:01:19.067Z,7.95
2022-08-27T18:04:24.475Z,5.30
2022-08-27T18:07:27.623Z,6.25
2022-08-27T18:10:30.430Z,4.78
2022-08-27T18:13:37.987Z,4.28
2022-08-27T18:16:42.144Z,4.22
2022-08-27T18:19:45.808Z,9.98
2022-08-27T18:22:49.162Z,6.55
2022-08-27T18:25:52.264Z,12.05
2022-08-27T18:28:57.031Z,7.28
2022-08-27T18:32:00.939Z,4.32
2022-08-27T18:35:12.393Z,6.45
2022-08-27T18:38:14.939Z,3.38
2022-08-27T18:41:17.904Z,4.65
2022-08-27T18:44:20.446Z,4.40
2022-08-27T18:47:25.301Z,5.60
2022-08-27T18:50:28.233Z,5.63
2022-08-27T18:53:34.069Z,4.47
2022-08-27T18:56:36.702Z,7.68
2022-08-27T18:59:40.500Z,5.15
2022-08-27T19:02:53.481Z,6.20
2022-08-27T19:06:08.997Z,8.18
2022-08-27T19:09:15.740Z,3.88
2022-08-27T19:12:23.276Z,4.18
2022-08-27T19:15:29.386Z,5.82
2022-08-27T19:18:38.175Z,4.55
2022-08-27T19:21:48.021Z,4.55
2022-08-27T19:24:56.030Z,5.50
2022-08-27T19:27:58.817Z,4.82
2022-08-27T19:31:01.310Z,6.97
2022-08-27T19:34:06.182Z,5.20
2022-08-27T19:37:11.552Z,4.90
2022-08-27T19:40:14.937Z,5.22
2022-08-27T19:43:17.940Z,6.82
2022-08-27T19:46:24.014Z,4.30
2022-08-27T19:49:28.555Z,6.38
2022-08-27T19:52:37.859Z,6.07
2022-08-27T19:55:48.612Z,8.40
2022-08-27T19:58:59.164Z,7.70
2022-08-27T20:02:13.301Z,5.22
2022-08-27T20:05:20.266Z,6.15
2022-08-27T20:08:23.670Z,7.47
2022-08-27T20:11:27.316Z,9.23
2022-08-27T20:14:48.257Z,6.82
2022-08-27T20:17:55.838Z,6.63
2022-08-27T20:21:06.124Z,6.25
2022-08-27T20:24:12.635Z,6.38
2022-08-27T20:27:16.214Z,8.63
2022-08-27T20:30:23.112Z,7.90
2022-08-27T20:33:33.659Z,7.07
2022-08-27T20:36:38.590Z,11.23
2022-08-27T20:39:44.096Z,10.32
2022-08-27T20:43:01.798Z,9.07
2022-08-27T20:46:11.961Z,7.63
2022-08-27T20:49:15.299Z,13.13
2022-08-27T20:52:32.113Z,10.88
2022-08-27T20:55:39.354Z,8.43
2022-08-27T20:59:00.371Z,7.25
2022-08-27T21:02:10.341Z,9.02
2022-08-27T21:05:24.425Z,10.27
2022-08-27T21:08:30.715Z,8.80
2022-08-27T21:11:34.042Z,10.38
2022-08-27T21:14:37.501Z,10.02
2022-08-27T21:17:42.213Z,12.65
2022-08-27T21:20:46.068Z,10.80
2022-08-27T21:23:52.313Z,9.35
2022-08-27T21:26:58.057Z,14.10
2022-08-27T21:30:15.909Z,11.15
2022-08-27T21:33:19.909Z,11.48
2022-08-27T21:36:27.083Z,11.98
2022-08-27T21:39:40.337Z,10.43
2022-08-27T21:42:47.903Z,11.35
2022-08-27T21:45:55.356Z,10.18
2022-08-27T21:49:03.178Z,11.60
2022-08-27T21:52:10.895Z,12.15
2022-08-27T21:55:19.412Z,10.88
2022-08-27T21:58:32.327Z,12.32
2022-08-27T22:01:37.009Z,11.45
2022-08-27T22:04:40.722Z,9.93
2022-08-27T22:07:51.056Z,9.93
2022-08-27T22:15:23.425Z,12.03
2022-08-27T22:18:34.717Z,18.97
2022-08-27T22:21:43.003Z,9.43
2022-08-27T22:24:49.486Z,15.13
2022-08-27T22:28:05.594Z,11.77
2022-08-27T22:31:08.984Z,13.32
2022-08-27T22:34:23.875Z,14.30
2022-08-27T22:37:30.502Z,12.93
2022-08-27T22:40:37.943Z,13.32
2022-08-27T22:43:41.433Z,12.45
2022-08-27T22:46:57.607Z,11.18
2022-08-27T22:50:02.657Z,11.50
2022-08-27T22:53:06.996Z,13.52
2022-08-27T22:56:23.597Z,11.27
2022-08-27T22:59:27.030Z,13.35
2022-08-27T23:02:31.031Z,15.68
2022-08-27T23:05:47.405Z,16.98
2022-08-27T23:08:50.384Z,17.42
2022-08-27T23:11:53.512Z,14.15
2022-08-27T23:14:56.325Z,13.00
2022-08-27T23:17:59.698Z,10.82
2022-08-27T23:21:05.998Z,15.02
2022-08-27T23:24:08.555Z,11.80
2022-08-27T23:27:28.480Z,19.73
2022-08-27T23:30:31.391Z,14.90
2022-08-27T23:33:33.930Z,14.35
2022-08-27T23:36:38.367Z,11.85
2022-08-27T23:39:40.891Z,11.43
2022-08-27T23:42:45.080Z,17.20
2022-08-27T23:45:48.059Z,9.88
2022-08-27T23:48:50.644Z,13.13
2022-08-27T23:51:54.543Z,12.98
2022-08-27T23:54:57.181Z,13.23
2022-08-27T23:58:04.850Z,16.63
